createdAt,value
2023-05-13T00:01:42.290Z,6.93
2023-05-13T00:04:09.364Z,7.00
2023-05-13T00:06:36.306Z,7.10
2023-05-13T00:09:03.669Z,6.60
2023-05-13T00:11:30.480Z,6.70
2023-05-13T00:13:57.810Z,7.30
2023-05-13T00:16:27.666Z,7.00
2023-05-13T00:18:55.733Z,7.30
2023-05-13T00:21:23.499Z,7.23
2023-05-13T00:23:50.525Z,7.13
2023-05-13T00:26:17.338Z,7.50
2023-05-13T00:28:44.153Z,7.40
2023-05-13T00:31:11.348Z,7.50
2023-05-13T00:33:38.228Z,7.13
2023-05-13T00:36:05.459Z,7.57
2023-05-13T00:38:32.860Z,6.70
2023-05-13T00:40:59.670Z,7.50
2023-05-13T00:43:26.389Z,7.80
2023-05-13T00:45:53.349Z,6.80
2023-05-13T00:48:20.250Z,7.30
2023-05-13T00:50:47.590Z,7.10
2023-05-13T00:53:14.972Z,8.00
2023-05-13T00:55:43.279Z,6.37
2023-05-13T00:58:11.411Z,6.77
2023-05-13T01:00:48.231Z,7.50
2023-05-13T01:03:26.313Z,7.03
2023-05-13T01:06:04.540Z,6.23
2023-05-13T01:09:01.472Z,6.93
2023-05-13T01:11:32.265Z,7.10
2023-05-13T01:14:19.569Z,7.63
2023-05-13T01:16:59.263Z,8.70
2023-05-13T01:19:38.402Z,8.07
2023-05-13T01:22:06.772Z,7.20
2023-05-13T01:24:33.653Z,7.47
2023-05-13T01:27:01.100Z,8.30
2023-05-13T01:29:28.232Z,6.93
2023-05-13T01:31:56.588Z,6.93
2023-05-13T01:34:25.126Z,7.20
2023-05-13T01:36:52.241Z,7.90
2023-05-13T01:39:20.308Z,7.80
2023-05-13T01:41:47.256Z,8.17
2023-05-13T01:44:14.004Z,8.00
2023-05-13T01:46:42.800Z,8.23
2023-05-13T01:49:10.239Z,7.47
2023-05-13T01:51:37.935Z,9.00
2023-05-13T01:54:05.235Z,8.80
2023-05-13T01:56:32.089Z,9.03
2023-05-13T01:58:58.850Z,9.30
2023-05-13T02:01:25.671Z,8.00
2023-05-13T02:03:52.535Z,7.87
2023-05-13T02:06:19.631Z,8.90
2023-05-13T02:08:47.121Z,8.97
2023-05-13T02:11:13.897Z,8.40
2023-05-13T02:13:40.682Z,8.97
2023-05-13T02:16:07.497Z,9.50
2023-05-13T02:18:34.323Z,9.43
2023-05-13T02:21:01.060Z,7.90
2023-05-13T02:23:27.806Z,8.30
2023-05-13T02:25:54.551Z,8.47
2023-05-13T02:28:21.322Z,7.57
2023-05-13T02:30:48.065Z,8.30
2023-05-13T02:33:14.782Z,8.07
2023-05-13T02:35:41.755Z,9.17
2023-05-13T02:38:11.612Z,8.00
2023-05-13T02:40:38.546Z,8.53
2023-05-13T02:43:05.394Z,8.17
2023-05-13T02:45:33.265Z,7.00
2023-05-13T02:48:00.059Z,8.40
2023-05-13T02:50:26.835Z,7.00
2023-05-13T02:52:53.570Z,7.70
2023-05-13T02:55:20.404Z,7.50
2023-05-13T02:57:47.186Z,7.00
2023-05-13T03:00:14.682Z,8.50
2023-05-13T03:02:41.941Z,7.17
2023-05-13T03:05:09.093Z,8.07
2023-05-13T03:07:35.853Z,7.17
2023-05-13T03:10:02.661Z,6.90
2023-05-13T03:12:29.611Z,6.90
2023-05-13T03:14:56.503Z,6.73
2023-05-13T03:17:23.274Z,7.13
2023-05-13T03:19:50.065Z,6.87
2023-05-13T03:22:16.978Z,6.77
2023-05-13T03:24:44.434Z,7.50
2023-05-13T03:27:11.198Z,6.50
2023-05-13T03:29:37.937Z,7.33
2023-05-13T03:32:06.498Z,6.40
2023-05-13T03:34:33.647Z,5.90
2023-05-13T03:37:00.512Z,6.67
2023-05-13T03:39:27.250Z,6.40
2023-05-13T03:41:53.940Z,7.23
2023-05-13T03:44:20.815Z,7.67
2023-05-13T03:46:47.636Z,7.97
2023-05-13T03:49:14.378Z,8.50
2023-05-13T03:51:41.088Z,7.87
2023-05-13T03:54:07.930Z,6.60
2023-05-13T03:56:34.662Z,7.20
2023-05-13T03:59:01.342Z,7.40
2023-05-13T04:01:28.085Z,6.90
2023-05-13T04:03:54.784Z,6.90
2023-05-13T04:06:21.724Z,7.07
2023-05-13T04:08:49.319Z,6.80
2023-05-13T04:11:16.063Z,6.63
2023-05-13T04:13:45.884Z,6.27
2023-05-13T04:16:12.658Z,6.33
2023-05-13T04:18:39.477Z,6.90
2023-05-13T04:21:07.513Z,6.70
2023-05-13T04:23:34.423Z,7.00
2023-05-13T04:26:01.223Z,8.60
2023-05-13T04:28:28.187Z,7.70
2023-05-13T04:30:54.961Z,6.30
2023-05-13T04:33:21.732Z,6.30
2023-05-13T04:35:48.733Z,6.03
2023-05-13T04:38:15.595Z,6.20
2023-05-13T04:40:43.959Z,6.07
2023-05-13T04:43:12.218Z,6.60
2023-05-13T04:45:39.507Z,5.93
2023-05-13T04:48:06.695Z,6.70
2023-05-13T04:50:33.498Z,6.43
2023-05-13T04:53:00.441Z,6.57
2023-05-13T04:55:27.870Z,6.10
2023-05-13T04:57:54.891Z,6.20
2023-05-13T05:00:21.889Z,6.90
2023-05-13T05:02:48.856Z,6.53
2023-05-13T05:05:18.243Z,6.60
2023-05-13T05:07:45.394Z,6.27
2023-05-13T05:10:12.252Z,5.73
2023-05-13T05:12:39.805Z,6.50
2023-05-13T05:15:11.371Z,6.00
2023-05-13T05:17:38.717Z,5.60
2023-05-13T05:20:06.003Z,5.47
2023-05-13T05:22:33.444Z,6.43
2023-05-13T05:25:00.322Z,6.10
2023-05-13T05:27:27.041Z,5.87
2023-05-13T05:29:53.742Z,5.97
2023-05-13T05:32:20.929Z,6.30
2023-05-13T05:34:47.704Z,6.37
2023-05-13T05:37:14.449Z,6.00
2023-05-13T05:39:41.246Z,6.53
2023-05-13T05:42:10.862Z,6.37
2023-05-13T05:44:37.550Z,6.37
2023-05-13T05:47:04.393Z,6.73
2023-05-13T05:49:31.113Z,6.80
2023-05-13T05:51:57.885Z,6.70
2023-05-13T05:54:24.649Z,7.57
2023-05-13T05:56:51.372Z,6.93
2023-05-13T05:59:18.342Z,7.33
2023-05-13T06:01:46.059Z,7.33
2023-05-13T06:04:12.804Z,7.23
2023-05-13T06:06:40.474Z,7.70
2023-05-13T06:09:07.283Z,8.27
2023-05-13T06:11:34.065Z,7.23
2023-05-13T06:14:00.902Z,7.00
2023-05-13T06:16:27.829Z,6.97
2023-05-13T06:18:54.619Z,6.63
2023-05-13T06:21:21.492Z,6.60
2023-05-13T06:23:48.214Z,6.93
2023-05-13T06:26:14.950Z,7.10
2023-05-13T06:28:41.636Z,7.23
2023-05-13T06:31:08.417Z,6.90
2023-05-13T06:33:35.351Z,7.97
2023-05-13T06:36:02.167Z,8.70
2023-05-13T06:38:28.926Z,10.23
2023-05-13T06:40:55.718Z,11.70
2023-05-13T06:43:22.525Z,14.27
2023-05-13T06:45:49.273Z,13.93
2023-05-13T06:48:16.187Z,14.70
2023-05-13T06:50:42.884Z,13.00
2023-05-13T06:53:11.849Z,12.27
2023-05-13T06:55:41.927Z,11.93
2023-05-13T06:58:09.495Z,12.37
2023-05-13T07:00:40.702Z,13.30
2023-05-13T07:03:08.564Z,12.40
2023-05-13T07:05:35.938Z,10.77
2023-05-13T07:08:06.779Z,11.47
2023-05-13T07:10:34.429Z,10.80
2023-05-13T07:13:04.427Z,10.70
2023-05-13T07:15:31.273Z,10.87
2023-05-13T07:17:58.022Z,11.27
2023-05-13T07:20:26.501Z,9.80
2023-05-13T07:22:53.519Z,10.03
2023-05-13T07:25:20.208Z,11.03
2023-05-13T07:27:47.865Z,9.50
2023-05-13T07:30:14.754Z,10.13
2023-05-13T07:32:41.957Z,9.83
2023-05-13T07:35:09.886Z,9.90
2023-05-13T07:37:37.115Z,9.80
2023-05-13T07:40:05.938Z,9.57
2023-05-13T07:42:33.109Z,10.03
2023-05-13T07:45:00.082Z,10.10
2023-05-13T07:47:29.021Z,9.97
2023-05-13T07:49:56.070Z,9.90
2023-05-13T07:52:23.432Z,9.90
2023-05-13T07:54:50.349Z,10.23
2023-05-13T07:57:17.158Z,9.77
2023-05-13T07:59:44.954Z,9.63
2023-05-13T08:02:12.627Z,9.40
2023-05-13T08:04:39.586Z,10.67
2023-05-13T08:07:06.605Z,8.97
2023-05-13T08:09:33.424Z,8.30
2023-05-13T08:12:00.581Z,9.97
2023-05-13T08:14:27.403Z,9.23
2023-05-13T08:16:54.655Z,9.80
2023-05-13T08:19:21.778Z,9.90
2023-05-13T08:21:48.596Z,10.50
2023-05-13T08:24:15.440Z,10.73
2023-05-13T08:26:42.601Z,10.20
2023-05-13T08:29:12.944Z,10.00
2023-05-13T08:31:39.910Z,10.80
2023-05-13T08:34:06.883Z,10.17
2023-05-13T08:36:34.007Z,11.13
2023-05-13T08:39:01.608Z,9.20
2023-05-13T08:41:31.822Z,8.77
2023-05-13T08:43:59.580Z,9.37
2023-05-13T08:46:29.022Z,9.17
2023-05-13T08:48:56.842Z,8.33
2023-05-13T08:51:23.999Z,8.27
2023-05-13T08:53:53.174Z,8.60
2023-05-13T08:56:20.174Z,8.47
2023-05-13T08:58:46.877Z,8.30
2023-05-13T09:01:13.885Z,8.33
2023-05-13T09:03:58.486Z,7.83
2023-05-13T09:06:25.527Z,7.17
2023-05-13T09:08:53.093Z,6.07
2023-05-13T09:11:19.971Z,7.00
2023-05-13T09:14:07.242Z,7.40
2023-05-13T09:16:36.338Z,6.07
2023-05-13T09:19:08.219Z,6.60
2023-05-13T09:21:36.104Z,6.03
2023-05-13T09:24:08.709Z,6.70
2023-05-13T09:26:37.551Z,5.70
2023-05-13T09:29:30.369Z,6.47
2023-05-13T09:31:59.284Z,5.90
2023-05-13T09:34:31.485Z,6.20
2023-05-13T09:37:04.925Z,5.83
2023-05-13T09:39:42.060Z,5.20
2023-05-13T09:42:19.339Z,5.60
2023-05-13T09:44:46.956Z,4.47
2023-05-13T09:47:14.888Z,4.70
2023-05-13T09:49:43.631Z,5.00
2023-05-13T09:52:11.740Z,4.40
2023-05-13T09:54:39.000Z,4.43
2023-05-13T09:57:06.371Z,5.40
2023-05-13T09:59:36.556Z,4.70
2023-05-13T10:02:06.700Z,5.33
2023-05-13T10:04:33.780Z,4.67
2023-05-13T10:07:03.388Z,5.13
2023-05-13T10:09:36.304Z,3.73
2023-05-13T10:12:05.829Z,3.83
2023-05-13T10:14:33.167Z,5.27
2023-05-13T10:17:00.311Z,4.60
2023-05-13T10:19:27.615Z,4.53
2023-05-13T10:21:57.401Z,5.40
2023-05-13T10:24:27.086Z,5.33
2023-05-13T10:26:54.559Z,4.93
2023-05-13T10:29:23.642Z,6.43
2023-05-13T10:31:51.794Z,5.27
2023-05-13T10:34:18.667Z,5.87
2023-05-13T10:37:09.356Z,6.27
2023-05-13T10:40:02.017Z,5.70
2023-05-13T10:43:10.108Z,5.83
2023-05-13T10:45:37.113Z,5.70
2023-05-13T10:48:08.645Z,5.57
2023-05-13T10:50:39.242Z,5.60
2023-05-13T10:53:17.747Z,5.67
2023-05-13T10:55:47.647Z,5.77
2023-05-13T10:58:15.471Z,5.63
2023-05-13T11:00:45.063Z,6.10
2023-05-13T11:03:21.067Z,5.33
2023-05-13T11:05:59.938Z,5.40
2023-05-13T11:08:39.961Z,4.40
2023-05-13T11:11:22.625Z,5.50
2023-05-13T11:13:52.829Z,5.80
2023-05-13T11:16:20.649Z,5.47
2023-05-13T11:18:47.887Z,4.83
2023-05-13T11:21:14.892Z,5.57
2023-05-13T11:24:05.393Z,6.07
2023-05-13T11:26:45.948Z,5.33
2023-05-13T11:29:13.106Z,4.90
2023-05-13T11:31:49.103Z,4.27
2023-05-13T11:34:17.777Z,4.87
2023-05-13T11:37:08.898Z,4.60
2023-05-13T11:39:38.381Z,5.03
2023-05-13T11:42:08.219Z,5.13
2023-05-13T11:44:35.756Z,4.80
2023-05-13T11:47:06.244Z,5.40
2023-05-13T11:49:39.043Z,5.37
2023-05-13T11:52:18.582Z,5.07
2023-05-13T11:54:48.810Z,4.10
2023-05-13T11:57:22.410Z,4.20
2023-05-13T11:59:56.005Z,4.20
2023-05-13T12:02:35.019Z,3.33
2023-05-13T12:05:04.984Z,4.70
2023-05-13T12:07:32.795Z,4.53
2023-05-13T12:10:01.248Z,4.30
2023-05-13T12:12:30.104Z,3.23
2023-05-13T12:15:01.612Z,4.20
2023-05-13T12:17:28.759Z,4.13
2023-05-13T12:20:21.887Z,3.90
2023-05-13T12:22:48.611Z,3.50
2023-05-13T12:25:41.445Z,5.60
2023-05-13T12:28:21.173Z,3.47
2023-05-13T12:30:54.761Z,3.57
2023-05-13T12:33:29.621Z,3.90
2023-05-13T12:36:27.747Z,3.70
2023-05-13T12:39:03.318Z,3.63
2023-05-13T12:41:32.471Z,3.47
2023-05-13T12:44:00.861Z,3.70
2023-05-13T12:46:28.619Z,2.60
2023-05-13T12:48:58.845Z,3.33
2023-05-13T12:51:25.992Z,3.17
2023-05-13T12:53:54.499Z,2.97
2023-05-13T12:56:25.392Z,3.13
2023-05-13T12:58:54.062Z,6.03
2023-05-13T13:01:21.953Z,3.93
2023-05-13T13:03:48.896Z,3.77
2023-05-13T13:06:16.247Z,3.80
2023-05-13T13:08:43.104Z,4.50
2023-05-13T13:11:10.431Z,3.80
2023-05-13T13:13:39.109Z,3.13
2023-05-13T13:16:06.727Z,3.40
2023-05-13T13:18:33.549Z,3.67
2023-05-13T13:21:00.576Z,4.00
2023-05-13T13:23:27.476Z,4.50
2023-05-13T13:25:54.259Z,3.77
2023-05-13T13:28:20.971Z,3.27
2023-05-13T13:30:47.832Z,4.30
2023-05-13T13:33:15.889Z,3.90
2023-05-13T13:35:47.197Z,3.80
2023-05-13T13:38:14.949Z,3.80
2023-05-13T13:40:41.765Z,3.50
2023-05-13T13:43:09.178Z,4.10
2023-05-13T13:45:36.108Z,3.30
2023-05-13T13:48:03.309Z,3.40
2023-05-13T13:50:30.127Z,3.50
2023-05-13T13:52:56.815Z,3.13
2023-05-13T13:55:24.586Z,4.80
2023-05-13T13:57:52.091Z,4.27
2023-05-13T14:00:19.351Z,3.90
2023-05-13T14:02:46.663Z,3.23
2023-05-13T14:05:13.704Z,3.63
2023-05-13T14:07:40.601Z,3.40
2023-05-13T14:10:08.113Z,3.73
2023-05-13T14:12:36.310Z,3.77
2023-05-13T14:15:03.441Z,3.50
2023-05-13T14:17:30.375Z,3.80
2023-05-13T14:19:57.117Z,4.10
2023-05-13T14:22:24.287Z,3.90
2023-05-13T14:24:52.373Z,3.63
2023-05-13T14:27:20.004Z,3.87
2023-05-13T14:29:47.812Z,3.80
2023-05-13T14:32:15.262Z,3.33
2023-05-13T14:34:42.412Z,3.63
2023-05-13T14:37:09.390Z,3.77
2023-05-13T14:39:36.392Z,3.67
2023-05-13T14:42:03.740Z,4.07
2023-05-13T14:44:30.610Z,2.90
2023-05-13T14:46:57.518Z,3.33
2023-05-13T14:49:24.391Z,4.03
2023-05-13T14:51:51.186Z,3.80
2023-05-13T14:54:18.049Z,2.90
2023-05-13T14:56:45.411Z,3.40
2023-05-13T14:59:12.211Z,2.83
2023-05-13T15:01:39.152Z,2.70
2023-05-13T15:04:06.143Z,3.20
2023-05-13T15:06:33.287Z,3.17
2023-05-13T15:09:00.211Z,2.90
2023-05-13T15:11:28.273Z,4.03
2023-05-13T15:13:55.550Z,3.30
2023-05-13T15:16:22.753Z,5.50
2023-05-13T15:18:50.389Z,4.90
2023-05-13T15:21:17.532Z,5.37
2023-05-13T15:23:44.332Z,6.83
2023-05-13T15:26:11.232Z,4.77
2023-05-13T15:28:38.079Z,6.43
2023-05-13T15:31:05.935Z,6.10
2023-05-13T15:33:32.934Z,4.77
2023-05-13T15:36:00.294Z,6.10
2023-05-13T15:38:27.615Z,4.83
2023-05-13T15:40:54.494Z,4.60
2023-05-13T15:43:21.253Z,4.43
2023-05-13T15:45:49.781Z,5.10
2023-05-13T15:48:17.449Z,4.70
2023-05-13T15:50:44.481Z,4.00
2023-05-13T15:53:11.195Z,4.57
2023-05-13T15:55:39.405Z,3.87
2023-05-13T15:58:07.067Z,4.20
2023-05-13T16:00:34.028Z,3.37
2023-05-13T16:03:01.215Z,5.00
2023-05-13T16:05:28.248Z,4.90
2023-05-13T16:07:57.078Z,3.80
2023-05-13T16:10:24.276Z,4.13
2023-05-13T16:12:51.594Z,4.00
2023-05-13T16:15:18.510Z,2.90
2023-05-13T16:17:45.416Z,3.93
2023-05-13T16:20:13.343Z,3.43
2023-05-13T16:22:40.422Z,3.20
2023-05-13T16:25:09.003Z,5.77
2023-05-13T16:27:37.020Z,3.60
2023-05-13T16:30:06.160Z,3.40
2023-05-13T16:32:34.722Z,3.23
2023-05-13T16:35:02.431Z,3.47
2023-05-13T16:37:30.036Z,3.33
2023-05-13T16:39:56.865Z,3.60
2023-05-13T16:42:23.857Z,3.50
2023-05-13T16:44:51.649Z,3.13
2023-05-13T16:47:18.555Z,4.07
2023-05-13T16:49:45.562Z,3.03
2023-05-13T16:52:12.411Z,3.87
2023-05-13T16:54:39.279Z,2.80
2023-05-13T16:57:06.166Z,3.60
2023-05-13T16:59:33.355Z,4.63
2023-05-13T17:02:00.735Z,3.23
2023-05-13T17:04:28.438Z,3.80
2023-05-13T17:06:58.296Z,2.67
2023-05-13T17:09:25.934Z,3.10
2023-05-13T17:11:53.797Z,3.03
2023-05-13T17:14:20.928Z,3.03
2023-05-13T17:16:47.877Z,3.73
2023-05-13T17:19:14.880Z,3.00
2023-05-13T17:21:41.851Z,3.73
2023-05-13T17:24:08.673Z,3.70
2023-05-13T17:26:37.558Z,3.10
2023-05-13T17:29:05.288Z,3.13
2023-05-13T17:31:32.340Z,3.47
2023-05-13T17:33:59.156Z,3.33
2023-05-13T17:36:25.901Z,4.20
2023-05-13T17:38:52.698Z,4.10
2023-05-13T17:41:19.607Z,3.90
2023-05-13T17:43:46.527Z,3.60
2023-05-13T17:46:13.297Z,3.70
2023-05-13T17:48:40.115Z,3.73
2023-05-13T17:51:07.078Z,3.10
2023-05-13T17:53:34.929Z,3.07
2023-05-13T17:56:02.059Z,2.97
2023-05-13T17:58:28.879Z,2.73
2023-05-13T18:00:55.967Z,3.00
2023-05-13T18:03:22.810Z,3.37
2023-05-13T18:05:49.765Z,3.60
2023-05-13T18:08:16.633Z,4.00
2023-05-13T18:10:43.477Z,4.57
2023-05-13T18:13:10.836Z,4.27
2023-05-13T18:15:37.766Z,3.90
2023-05-13T18:18:05.109Z,3.73
2023-05-13T18:20:32.989Z,3.60
2023-05-13T18:23:00.211Z,3.70
2023-05-13T18:25:27.014Z,3.87
2023-05-13T18:27:54.630Z,3.30
2023-05-13T18:30:21.678Z,3.20
2023-05-13T18:32:48.737Z,3.10
2023-05-13T18:35:16.098Z,3.60
2023-05-13T18:37:42.961Z,3.73
2023-05-13T18:40:10.175Z,3.83
2023-05-13T18:42:37.023Z,3.43
2023-05-13T18:45:04.282Z,3.80
2023-05-13T18:47:31.139Z,3.60
2023-05-13T18:49:57.872Z,3.27
2023-05-13T18:52:26.023Z,3.83
2023-05-13T18:54:52.867Z,3.70
2023-05-13T18:57:20.662Z,3.93
2023-05-13T18:59:47.800Z,4.17
2023-05-13T19:02:14.716Z,4.17
2023-05-13T19:04:41.704Z,3.27
2023-05-13T19:07:08.504Z,3.50
2023-05-13T19:09:36.183Z,4.30
2023-05-13T19:12:03.156Z,3.53
2023-05-13T19:14:29.972Z,3.87
2023-05-13T19:16:56.906Z,4.03
2023-05-13T19:19:24.597Z,3.93
2023-05-13T19:21:51.576Z,4.33
2023-05-13T19:24:18.981Z,4.00
2023-05-13T19:26:45.772Z,4.53
2023-05-13T19:29:12.762Z,4.07
2023-05-13T19:31:39.782Z,3.97
2023-05-13T19:34:07.669Z,4.10
2023-05-13T19:36:34.539Z,4.23
2023-05-13T19:39:01.486Z,4.40
2023-05-13T19:41:28.363Z,4.17
2023-05-13T19:43:55.110Z,4.83
2023-05-13T19:46:22.093Z,4.90
2023-05-13T19:48:49.190Z,4.80
2023-05-13T19:51:15.916Z,5.00
2023-05-13T19:53:42.752Z,4.33
2023-05-13T19:56:09.637Z,4.70
2023-05-13T19:58:36.759Z,5.20
2023-05-13T20:01:03.719Z,4.23
2023-05-13T20:03:30.648Z,4.10
2023-05-13T20:05:57.546Z,4.67
2023-05-13T20:08:24.326Z,4.40
2023-05-13T20:10:51.140Z,6.07
2023-05-13T20:13:17.931Z,4.63
2023-05-13T20:15:45.401Z,4.40
2023-05-13T20:18:12.215Z,4.73
2023-05-13T20:20:41.361Z,4.30
2023-05-13T20:23:08.206Z,4.00
2023-05-13T20:25:35.037Z,4.13
2023-05-13T20:28:01.871Z,4.67
2023-05-13T20:30:28.988Z,3.97
2023-05-13T20:32:55.959Z,4.23
2023-05-13T20:35:22.961Z,4.10
2023-05-13T20:37:49.772Z,4.10
2023-05-13T20:40:16.687Z,4.20
2023-05-13T20:42:43.455Z,4.50
2023-05-13T20:45:10.580Z,4.10
2023-05-13T20:47:37.597Z,4.50
2023-05-13T20:50:04.601Z,4.53
2023-05-13T20:52:31.622Z,4.57
2023-05-13T20:54:58.869Z,4.37
2023-05-13T20:57:25.921Z,4.80
2023-05-13T20:59:52.904Z,4.47
2023-05-13T21:02:19.821Z,4.67
2023-05-13T21:04:46.579Z,5.07
2023-05-13T21:07:13.572Z,5.07
2023-05-13T21:09:40.472Z,5.47
2023-05-13T21:12:07.324Z,4.87
2023-05-13T21:14:34.025Z,5.77
2023-05-13T21:17:03.472Z,5.03
2023-05-13T21:19:30.874Z,4.70
2023-05-13T21:21:58.538Z,5.20
2023-05-13T21:24:25.426Z,4.83
2023-05-13T21:26:52.358Z,3.90
2023-05-13T21:29:19.331Z,5.20
2023-05-13T21:31:47.453Z,4.63
2023-05-13T21:34:14.308Z,4.70
2023-05-13T21:36:41.024Z,4.70
2023-05-13T21:39:09.524Z,4.93
2023-05-13T21:41:36.414Z,4.57
2023-05-13T21:44:03.398Z,5.07
2023-05-13T21:46:30.285Z,5.70
2023-05-13T21:48:58.505Z,5.00
2023-05-13T21:51:25.521Z,5.23
2023-05-13T21:53:52.296Z,4.43
2023-05-13T21:56:19.039Z,4.93
2023-05-13T21:58:45.957Z,5.90
2023-05-13T22:01:12.814Z,5.73
2023-05-13T22:03:40.884Z,5.50
2023-05-13T22:06:07.946Z,5.40
2023-05-13T22:08:34.831Z,5.90
2023-05-13T22:11:01.724Z,7.23
2023-05-13T22:13:28.549Z,5.43
2023-05-13T22:15:55.567Z,6.00
2023-05-13T22:18:23.568Z,5.40
2023-05-13T22:20:51.020Z,5.00
2023-05-13T22:23:17.881Z,6.03
2023-05-13T22:25:44.856Z,5.47
2023-05-13T22:28:11.636Z,5.63
2023-05-13T22:30:38.412Z,6.17
2023-05-13T22:33:05.204Z,5.80
2023-05-13T22:35:36.114Z,5.03
2023-05-13T22:38:04.272Z,5.90
2023-05-13T22:40:31.336Z,5.80
2023-05-13T22:42:58.208Z,6.07
2023-05-13T22:45:25.186Z,6.40
2023-05-13T22:47:52.025Z,6.77
2023-05-13T22:50:18.994Z,6.23
2023-05-13T22:52:45.780Z,5.10
2023-05-13T22:55:12.670Z,5.70
2023-05-13T22:57:39.544Z,6.67
2023-05-13T23:00:07.270Z,6.10
2023-05-13T23:02:34.097Z,6.03
2023-05-13T23:05:00.861Z,6.43
2023-05-13T23:07:27.606Z,6.60
2023-05-13T23:09:54.345Z,6.20
2023-05-13T23:12:22.302Z,6.27
2023-05-13T23:14:49.211Z,7.97
2023-05-13T23:17:16.050Z,5.70
2023-05-13T23:19:42.876Z,5.67
2023-05-13T23:22:09.668Z,6.37
2023-05-13T23:24:36.521Z,6.97
2023-05-13T23:27:03.969Z,5.80
2023-05-13T23:29:30.837Z,6.60
2023-05-13T23:31:57.662Z,6.30
2023-05-13T23:34:24.440Z,6.07
2023-05-13T23:36:51.235Z,6.20
2023-05-13T23:39:18.028Z,6.50
2023-05-13T23:41:44.798Z,6.57
2023-05-13T23:44:11.918Z,6.77
2023-05-13T23:46:38.793Z,6.10
2023-05-13T23:49:05.538Z,7.30
2023-05-13T23:51:32.287Z,6.77
2023-05-13T23:53:59.834Z,6.37
2023-05-13T23:56:26.664Z,7.83
2023-05-13T23:58:53.456Z,7.20
